Skip Navigation Links
NOAA logo - Click to go to the NOAA homepage
NOAA's National Weather Service
Alaska Aviation Weather Unit
  NWS logo - Click to go to the NWS homepage
Left Navbar Graphic     23 AKDT = 07 GMT

   
NOAA is celebrating 200 years of science, service, and stewardship. Visit the NOAA 200th celebration Web site to learn more.
USA.gov is the U.S. Government's official Web portal to all Federal, state and local government Web resources and services.
Facebook
NWS on Facebook

Important Change Regarding the AAWU Web Presence

 

Over the last several months, the AAWU has been working to navigate its webpages to a nationally supported server. Security, as well as other needs, have necessitated the change.  In the process, we have made an effort to enhance the functionality of our website, as well as some of our products. As of June 20, 2017, aawu.arh.noaa.gov will be discontinued. The new AAWU web address is weather.gov/aawu. It is now live and will run in-parallel with the old site until it is discontinued. Please send any feedback or questions regarding the new webpages to nws.ar.aawu.webauthors@noaa.gov.  Thank you for your patience during this time of transition.
AAWU Home :: Display TAF Add Bookmark
TAF CYQH 240538Z 2406/2418 31005KT P6SM SCT060 TEMPO 2406/2409 BKN060
    RMK NXT FCST BY 241200Z=

METAR CYQH 240100Z 36009G17KT 280V010 40SM BKN065 BKN084 18/M02 A2963 RMK SC5AC1 SLP051 DENSITY ALT 3400FT= METAR CYQH 240200Z 32010G17KT 40SM BKN065 BKN100 17/M03 A2964 RMK SC5AC2 SLP053 DENSITY ALT 3300FT= METAR CYQH 240300Z 30009KT 40SM BKN065 BKN110 15/M02 A2965 RMK SC5AC2 SLP057 DENSITY ALT 3100FT= METAR CYQH 240400Z 33007KT 40SM SCT065 BKN110 16/M03 A2967 RMK SC3AC3 SLP059 DENSITY ALT 3100FT= METAR CYQH 240500Z 31005KT 40SM FEW065 SCT120 13/M02 A2969 RMK SC2AC2 SLP068 DENSITY ALT 2800FT= METAR CYQH 240600Z 29004KT 30SM FEW065 FEW120 09/M00 A2971 RMK SC1AC1 CLIMAT SLP078 DENSITY ALT 2300FT= METAR CYQH 240700Z VRB02KT 30SM FEW065 SCT120 08/M01 A2974 RMK SC2AC1 SLP088=
 Alaska TAF Map

NOAA's National Weather Service
Alaska Aviation Weather Unit
6930 Sand Lake Road
Anchorage, AK 99502-1845
Disclaimer
Credits
Glossary
Privacy Policy
About Us
Career Opportunities
Contact AAWU Internet Services Site last modified: April, 17th 2012